createdAt,value
2018-11-25T00:01:41.450Z,82.36
2018-11-25T00:04:09.179Z,82.12
2018-11-25T00:06:36.917Z,82.44
2018-11-25T00:09:07.082Z,81.94
2018-11-25T00:11:34.810Z,82.56
2018-11-25T00:14:02.751Z,82.22
2018-11-25T00:16:30.565Z,82.20
2018-11-25T00:18:58.314Z,83.10
2018-11-25T00:21:26.038Z,82.36
2018-11-25T00:23:53.735Z,82.34
2018-11-25T00:26:21.497Z,81.81
2018-11-25T00:28:49.277Z,81.89
2018-11-25T00:31:17.053Z,81.94
2018-11-25T00:33:44.761Z,82.36
2018-11-25T00:36:12.535Z,81.92
2018-11-25T00:38:40.262Z,82.74
2018-11-25T00:41:07.985Z,83.58
2018-11-25T00:43:35.719Z,82.97
2018-11-25T00:46:03.522Z,82.81
2018-11-25T00:48:31.249Z,83.17
2018-11-25T00:50:58.966Z,83.27
2018-11-25T00:53:26.708Z,83.39
2018-11-25T00:55:54.447Z,83.29
2018-11-25T00:58:22.181Z,83.11
2018-11-25T01:00:49.968Z,83.26
2018-11-25T01:03:17.695Z,83.51
2018-11-25T01:05:45.442Z,83.27
2018-11-25T01:08:13.188Z,82.79
2018-11-25T01:10:41.013Z,82.43
2018-11-25T01:13:08.720Z,82.83
2018-11-25T01:15:36.406Z,83.29
2018-11-25T01:18:04.165Z,83.52
2018-11-25T01:20:31.990Z,83.49
2018-11-25T01:22:59.701Z,83.73
2018-11-25T01:25:27.474Z,83.96
2018-11-25T01:27:55.299Z,83.48
2018-11-25T01:30:23.102Z,82.83
2018-11-25T01:32:50.833Z,83.04
2018-11-25T01:35:18.585Z,83.01
2018-11-25T01:37:46.308Z,82.49
2018-11-25T01:40:15.067Z,82.83
2018-11-25T01:42:42.929Z,82.65
2018-11-25T01:45:14.525Z,82.69
2018-11-25T01:47:42.302Z,82.45
2018-11-25T01:50:12.293Z,82.80
2018-11-25T01:52:40.038Z,83.83
2018-11-25T01:55:09.430Z,83.49
2018-11-25T01:57:37.182Z,83.34
2018-11-25T02:00:11.598Z,83.05
2018-11-25T02:02:39.367Z,83.26
2018-11-25T02:05:07.200Z,83.12
2018-11-25T02:07:35.727Z,83.77
2018-11-25T02:10:04.905Z,83.16
2018-11-25T02:12:32.675Z,83.84
2018-11-25T02:15:00.466Z,83.56
2018-11-25T02:17:28.275Z,83.68
2018-11-25T02:19:56.022Z,83.03
2018-11-25T02:22:23.714Z,83.08
2018-11-25T02:24:51.444Z,83.08
2018-11-25T02:27:19.188Z,83.47
2018-11-25T02:29:46.975Z,82.79
2018-11-25T02:32:14.770Z,83.14
2018-11-25T02:34:42.505Z,83.57
2018-11-25T02:37:10.240Z,83.83
2018-11-25T02:39:37.961Z,83.89
2018-11-25T02:42:05.791Z,84.35
2018-11-25T02:44:34.187Z,84.32
2018-11-25T02:47:01.932Z,84.08
2018-11-25T02:49:29.759Z,83.59
2018-11-25T02:51:57.513Z,83.28
2018-11-25T02:54:25.315Z,83.71
2018-11-25T02:56:53.059Z,83.84
2018-11-25T02:59:20.829Z,84.44
2018-11-25T03:01:48.517Z,84.11
2018-11-25T03:04:16.258Z,84.80
2018-11-25T03:06:43.974Z,84.32
2018-11-25T03:09:11.737Z,84.22
2018-11-25T03:11:39.480Z,83.98
2018-11-25T03:14:07.281Z,83.96
2018-11-25T03:16:35.027Z,83.33
2018-11-25T03:19:02.774Z,83.97
2018-11-25T03:21:30.490Z,83.83
2018-11-25T03:23:58.319Z,83.84
2018-11-25T03:26:26.037Z,84.18
2018-11-25T03:28:53.721Z,84.49
2018-11-25T03:31:21.446Z,84.67
2018-11-25T03:33:49.166Z,84.44
2018-11-25T03:36:16.915Z,84.09
2018-11-25T03:38:44.634Z,83.61
2018-11-25T03:41:12.345Z,84.02
2018-11-25T03:43:40.053Z,83.63
2018-11-25T03:46:08.618Z,83.36
2018-11-25T03:48:36.782Z,83.27
2018-11-25T03:51:04.760Z,83.78
2018-11-25T03:53:32.591Z,83.44
2018-11-25T03:56:00.381Z,83.68
2018-11-25T03:58:28.150Z,83.75
2018-11-25T04:00:55.922Z,83.27
2018-11-25T04:03:23.632Z,83.54
2018-11-25T04:05:51.409Z,83.38
2018-11-25T04:08:19.519Z,83.01
2018-11-25T04:10:47.205Z,83.26
2018-11-25T04:13:14.910Z,82.63
2018-11-25T04:15:42.619Z,83.05
2018-11-25T04:18:10.329Z,82.40
2018-11-25T04:20:38.067Z,82.37
2018-11-25T04:23:05.888Z,81.89
2018-11-25T04:25:33.647Z,81.81
2018-11-25T04:28:01.342Z,81.50
2018-11-25T04:30:29.085Z,81.95
2018-11-25T04:32:56.828Z,82.31
2018-11-25T04:35:24.578Z,82.44
2018-11-25T04:37:52.306Z,82.73
2018-11-25T04:40:20.058Z,82.08
2018-11-25T04:42:47.812Z,82.38
2018-11-25T04:45:16.442Z,82.12
2018-11-25T04:47:44.782Z,82.72
2018-11-25T04:50:17.418Z,83.13
2018-11-25T04:52:45.228Z,82.67
2018-11-25T04:55:13.185Z,82.09
2018-11-25T04:57:40.995Z,82.30
2018-11-25T05:00:11.028Z,82.48
2018-11-25T05:02:39.188Z,82.18
2018-11-25T05:05:09.166Z,82.03
2018-11-25T05:07:36.928Z,81.31
2018-11-25T05:10:06.521Z,81.71
2018-11-25T05:12:34.335Z,81.23
2018-11-25T05:15:02.099Z,81.10
2018-11-25T05:17:30.246Z,81.19
2018-11-25T05:19:57.567Z,80.89
2018-11-25T05:22:25.311Z,80.55
2018-11-25T05:24:53.034Z,80.76
2018-11-25T05:27:20.783Z,80.65
2018-11-25T05:29:48.566Z,81.08
2018-11-25T05:32:16.323Z,80.81
2018-11-25T05:34:44.036Z,81.02
2018-11-25T05:37:11.807Z,81.16
2018-11-25T05:39:39.531Z,80.80
2018-11-25T05:42:07.274Z,80.79
2018-11-25T05:44:35.003Z,80.70
2018-11-25T05:47:02.824Z,81.14
2018-11-25T05:49:36.385Z,81.30
2018-11-25T05:51:58.397Z,80.91
2018-11-25T05:54:26.115Z,80.79
2018-11-25T05:56:54.019Z,80.51
2018-11-25T05:59:21.783Z,81.28
2018-11-25T06:01:49.539Z,80.54
2018-11-25T06:04:17.349Z,80.91
2018-11-25T06:06:45.135Z,80.97
2018-11-25T06:09:12.854Z,81.13
2018-11-25T06:11:40.621Z,81.22
2018-11-25T06:14:08.366Z,80.54
2018-11-25T06:16:36.092Z,80.21
2018-11-25T06:19:04.028Z,79.98
2018-11-25T06:21:31.749Z,79.87
2018-11-25T06:23:59.544Z,80.37
2018-11-25T06:26:27.262Z,79.82
2018-11-25T06:28:55.005Z,79.31
2018-11-25T06:31:22.803Z,79.68
2018-11-25T06:33:50.680Z,79.45
2018-11-25T06:36:18.423Z,79.41
2018-11-25T06:38:46.174Z,79.99
2018-11-25T06:41:13.879Z,79.56
2018-11-25T06:43:41.678Z,79.68
2018-11-25T06:46:11.694Z,79.78
2018-11-25T06:48:39.421Z,79.89
2018-11-25T06:51:07.155Z,79.17
2018-11-25T06:53:34.884Z,79.49
2018-11-25T06:56:02.663Z,79.20
2018-11-25T06:58:30.342Z,79.53
2018-11-25T07:00:58.176Z,79.03
2018-11-25T07:03:25.928Z,79.24
2018-11-25T07:05:53.657Z,79.43
2018-11-25T07:08:21.421Z,78.94
2018-11-25T07:10:49.167Z,79.15
2018-11-25T07:13:16.879Z,79.20
2018-11-25T07:15:44.638Z,79.51
2018-11-25T07:18:12.399Z,79.18
2018-11-25T07:20:40.134Z,79.57
2018-11-25T07:23:07.853Z,79.15
2018-11-25T07:25:35.650Z,78.95
2018-11-25T07:28:18.002Z,79.12
2018-11-25T07:30:31.234Z,79.64
2018-11-25T07:32:58.994Z,78.89
2018-11-25T07:35:27.500Z,78.44
2018-11-25T07:37:55.294Z,78.39
2018-11-25T07:40:23.828Z,78.65
2018-11-25T07:42:51.606Z,78.58
2018-11-25T07:45:30.250Z,78.58
2018-11-25T07:47:51.344Z,78.85
2018-11-25T07:50:19.148Z,78.92
2018-11-25T07:52:47.597Z,78.71
2018-11-25T07:55:18.402Z,78.72
2018-11-25T07:57:46.523Z,78.69
2018-11-25T08:00:16.185Z,78.43
2018-11-25T08:02:43.985Z,78.32
2018-11-25T08:05:14.675Z,78.63
2018-11-25T08:07:42.467Z,78.57
2018-11-25T08:10:15.068Z,78.62
2018-11-25T08:12:42.981Z,79.41
2018-11-25T08:15:20.606Z,79.13
2018-11-25T08:17:48.418Z,78.87
2018-11-25T08:20:17.150Z,78.68
2018-11-25T08:22:44.954Z,78.78
2018-11-25T08:25:14.726Z,78.49
2018-11-25T08:27:42.615Z,78.46
2018-11-25T08:30:17.381Z,78.73
2018-11-25T08:32:45.226Z,78.97
2018-11-25T08:35:13.858Z,79.13
2018-11-25T08:37:41.739Z,78.88
2018-11-25T08:40:13.390Z,79.14
2018-11-25T08:42:41.252Z,79.07
2018-11-25T08:45:10.294Z,79.43
2018-11-25T08:47:38.110Z,79.93
2018-11-25T08:50:13.020Z,80.00
2018-11-25T08:52:41.140Z,80.54
2018-11-25T08:55:15.012Z,80.98
2018-11-25T08:57:42.822Z,80.98
2018-11-25T09:00:18.453Z,81.30
2018-11-25T09:02:46.392Z,81.26
2018-11-25T09:05:14.893Z,81.49
2018-11-25T09:07:42.683Z,81.17
2018-11-25T09:10:12.450Z,81.75
2018-11-25T09:12:40.254Z,81.86
2018-11-25T09:15:09.978Z,81.97
2018-11-25T09:17:37.718Z,82.08
2018-11-25T09:20:07.823Z,81.98
2018-11-25T09:22:35.575Z,82.14
2018-11-25T09:25:03.471Z,81.67
2018-11-25T09:27:31.233Z,81.54
2018-11-25T09:29:58.947Z,81.26
2018-11-25T09:32:26.716Z,81.95
2018-11-25T09:34:54.471Z,81.66
2018-11-25T09:37:22.207Z,82.02
2018-11-25T09:39:49.942Z,81.40
2018-11-25T09:42:17.721Z,81.47
2018-11-25T09:44:45.469Z,81.45
2018-11-25T09:47:13.188Z,81.15
2018-11-25T09:49:40.950Z,80.77
2018-11-25T09:52:08.708Z,81.36
2018-11-25T09:54:36.431Z,80.73
2018-11-25T09:57:04.251Z,81.11
2018-11-25T09:59:32.386Z,80.94
2018-11-25T10:02:00.104Z,80.78
2018-11-25T10:04:27.825Z,80.59
2018-11-25T10:06:55.603Z,80.93
2018-11-25T10:09:23.369Z,80.81
2018-11-25T10:11:51.072Z,81.12
2018-11-25T10:14:18.853Z,80.67
2018-11-25T10:16:46.599Z,81.28
2018-11-25T10:19:14.341Z,80.91
2018-11-25T10:21:42.085Z,80.85
2018-11-25T10:24:09.877Z,80.49
2018-11-25T10:26:37.609Z,80.74
2018-11-25T10:29:05.373Z,81.34
2018-11-25T10:31:33.142Z,80.72
2018-11-25T10:34:00.875Z,80.67
2018-11-25T10:36:28.656Z,80.65
2018-11-25T10:38:56.375Z,80.53
2018-11-25T10:41:24.177Z,80.37
2018-11-25T10:43:51.908Z,80.59
2018-11-25T10:46:19.655Z,80.30
2018-11-25T10:48:47.522Z,80.33
2018-11-25T10:51:15.245Z,80.67
2018-11-25T10:53:43.082Z,80.65
2018-11-25T10:56:10.877Z,80.40
2018-11-25T10:58:38.602Z,80.05
2018-11-25T11:01:11.888Z,80.29
2018-11-25T11:03:45.157Z,79.98
2018-11-25T11:06:18.799Z,80.06
2018-11-25T11:08:46.576Z,80.16
2018-11-25T11:11:14.341Z,80.17
2018-11-25T11:13:42.063Z,80.38
2018-11-25T11:16:09.940Z,80.06
2018-11-25T11:18:37.719Z,79.97
2018-11-25T11:21:05.842Z,79.67
2018-11-25T11:23:33.655Z,79.87
2018-11-25T11:26:06.674Z,79.65
2018-11-25T11:28:29.313Z,79.18
2018-11-25T11:30:57.139Z,79.49
2018-11-25T11:33:24.967Z,79.20
2018-11-25T11:35:52.764Z,79.00
2018-11-25T11:38:20.608Z,79.02
2018-11-25T11:40:48.451Z,78.90
2018-11-25T11:43:16.234Z,79.19
2018-11-25T11:45:43.974Z,78.56
2018-11-25T11:48:11.694Z,78.63
2018-11-25T11:50:39.450Z,78.29
2018-11-25T11:53:07.243Z,79.26
2018-11-25T11:55:35.039Z,79.09
2018-11-25T11:58:02.839Z,78.90
2018-11-25T12:00:31.268Z,78.86
2018-11-25T12:02:59.549Z,79.09
2018-11-25T12:05:28.361Z,78.27
2018-11-25T12:07:56.105Z,78.53
2018-11-25T12:10:24.825Z,78.54
2018-11-25T12:12:52.738Z,78.21
2018-11-25T12:15:30.439Z,78.55
2018-11-25T12:17:51.905Z,78.61
2018-11-25T12:20:21.427Z,78.43
2018-11-25T12:22:48.728Z,78.38
2018-11-25T12:25:17.274Z,78.21
2018-11-25T12:27:45.283Z,78.43
2018-11-25T12:30:14.085Z,78.33
2018-11-25T12:32:42.479Z,78.34
2018-11-25T12:35:11.366Z,78.02
2018-11-25T12:37:39.149Z,78.49
2018-11-25T12:40:10.278Z,78.48
2018-11-25T12:42:38.067Z,77.90
2018-11-25T12:45:08.600Z,77.85
2018-11-25T12:47:36.388Z,77.95
2018-11-25T12:50:04.331Z,77.16
2018-11-25T12:52:32.202Z,77.68
2018-11-25T12:55:00.030Z,77.40
2018-11-25T12:57:27.966Z,77.27
2018-11-25T12:59:55.794Z,77.80
2018-11-25T13:02:23.569Z,76.59
2018-11-25T13:04:51.403Z,76.95
2018-11-25T13:07:19.271Z,76.82
2018-11-25T13:09:47.058Z,76.74
2018-11-25T13:12:14.860Z,76.56
2018-11-25T13:14:42.637Z,76.87
2018-11-25T13:17:10.519Z,76.59
2018-11-25T13:19:38.425Z,76.73
2018-11-25T13:22:06.053Z,77.27
2018-11-25T13:24:34.530Z,77.28
2018-11-25T13:27:02.302Z,77.04
2018-11-25T13:29:29.979Z,77.20
2018-11-25T13:31:57.698Z,77.54
2018-11-25T13:34:25.410Z,77.25
2018-11-25T13:36:53.149Z,77.26
2018-11-25T13:39:20.915Z,77.54
2018-11-25T13:41:48.665Z,77.44
2018-11-25T13:44:16.418Z,77.36
2018-11-25T13:46:44.196Z,77.48
2018-11-25T13:49:11.908Z,77.08
2018-11-25T13:51:39.718Z,77.21
2018-11-25T13:54:07.491Z,77.23
2018-11-25T13:56:35.276Z,77.15
2018-11-25T13:59:03.091Z,77.46
2018-11-25T14:01:31.706Z,76.88
2018-11-25T14:03:59.442Z,77.75
2018-11-25T14:06:27.170Z,77.43
2018-11-25T14:08:55.097Z,77.14
2018-11-25T14:11:22.855Z,77.23
2018-11-25T14:13:50.545Z,77.53
2018-11-25T14:16:20.408Z,77.35
2018-11-25T14:18:48.165Z,77.02
2018-11-25T14:21:16.034Z,77.00
2018-11-25T14:23:43.826Z,77.67
2018-11-25T14:26:21.551Z,77.15
2018-11-25T14:28:50.224Z,77.43
2018-11-25T14:31:17.957Z,77.63
2018-11-25T14:33:45.699Z,77.52
2018-11-25T14:36:13.633Z,77.90
2018-11-25T14:38:41.358Z,77.36
2018-11-25T14:41:09.096Z,77.52
2018-11-25T14:43:36.882Z,77.67
2018-11-25T14:46:04.741Z,77.68
2018-11-25T14:48:32.617Z,77.58
2018-11-25T14:51:00.321Z,77.58
2018-11-25T14:53:28.062Z,77.69
2018-11-25T14:55:55.806Z,78.26
2018-11-25T14:58:23.639Z,78.46
2018-11-25T15:00:51.371Z,78.14
2018-11-25T15:03:19.098Z,78.67
2018-11-25T15:05:47.811Z,78.96
2018-11-25T15:08:17.377Z,78.31
2018-11-25T15:10:45.126Z,78.67
2018-11-25T15:13:13.022Z,78.56
2018-11-25T15:15:40.831Z,78.58
2018-11-25T15:18:09.123Z,78.37
2018-11-25T15:20:36.946Z,78.10
2018-11-25T15:23:07.367Z,78.37
2018-11-25T15:25:36.955Z,78.09
2018-11-25T15:28:05.341Z,78.05
2018-11-25T15:30:33.895Z,77.78
2018-11-25T15:33:01.752Z,78.11
2018-11-25T15:35:29.664Z,78.16
2018-11-25T15:37:57.794Z,77.99
2018-11-25T15:40:28.845Z,78.31
2018-11-25T15:42:56.732Z,77.98
2018-11-25T15:45:24.515Z,78.21
2018-11-25T15:47:57.676Z,77.79
2018-11-25T15:50:26.944Z,77.75
2018-11-25T15:52:55.106Z,77.82
2018-11-25T15:55:22.979Z,78.36
2018-11-25T15:57:51.709Z,78.32
2018-11-25T16:00:19.762Z,77.71
2018-11-25T16:02:47.730Z,77.81
2018-11-25T16:05:20.885Z,78.38
2018-11-25T16:07:48.698Z,77.97
2018-11-25T16:10:17.242Z,77.96
2018-11-25T16:12:47.243Z,77.84
2018-11-25T16:15:16.260Z,77.47
2018-11-25T16:17:44.069Z,77.72
2018-11-25T16:20:15.825Z,77.62
2018-11-25T16:22:43.869Z,77.83
2018-11-25T16:25:18.851Z,77.38
2018-11-25T16:27:47.273Z,77.51
2018-11-25T16:30:15.073Z,77.53
2018-11-25T16:32:43.456Z,76.99
2018-11-25T16:35:11.447Z,77.44
2018-11-25T16:37:40.279Z,77.28
2018-11-25T16:40:12.931Z,77.25
2018-11-25T16:42:40.850Z,77.43
2018-11-25T16:45:16.020Z,77.03
2018-11-25T16:47:44.538Z,77.50
2018-11-25T16:50:14.437Z,77.82
2018-11-25T16:52:42.246Z,77.64
2018-11-25T16:55:10.980Z,77.88
2018-11-25T16:57:38.893Z,78.08
2018-11-25T17:00:09.832Z,78.22
2018-11-25T17:02:37.547Z,78.31
2018-11-25T17:05:10.219Z,78.04
2018-11-25T17:07:38.165Z,77.99
2018-11-25T17:10:08.391Z,77.94
2018-11-25T17:12:36.187Z,77.96
2018-11-25T17:15:05.591Z,78.62
2018-11-25T17:17:33.301Z,78.06
2018-11-25T17:20:01.026Z,78.11
2018-11-25T17:22:29.486Z,78.66
2018-11-25T17:24:57.253Z,78.09
2018-11-25T17:27:25.042Z,78.16
2018-11-25T17:29:52.887Z,78.04
2018-11-25T17:32:20.764Z,78.01
2018-11-25T17:34:48.580Z,77.88
2018-11-25T17:37:16.277Z,78.30
2018-11-25T17:39:43.997Z,78.55
2018-11-25T17:42:11.756Z,79.48
2018-11-25T17:44:39.512Z,78.75
2018-11-25T17:47:07.250Z,78.98
2018-11-25T17:49:35.754Z,79.39
2018-11-25T17:52:03.556Z,79.77
2018-11-25T17:54:31.365Z,79.92
2018-11-25T17:56:59.152Z,79.86
2018-11-25T17:59:26.971Z,80.28
2018-11-25T18:01:54.744Z,79.99
2018-11-25T18:04:22.466Z,80.63
2018-11-25T18:06:50.339Z,80.62
2018-11-25T18:09:18.111Z,81.26
2018-11-25T18:11:45.911Z,80.35
2018-11-25T18:14:13.631Z,80.61
2018-11-25T18:16:41.463Z,80.60
2018-11-25T18:19:27.477Z,80.16
2018-11-25T18:22:00.434Z,79.63
2018-11-25T18:24:28.254Z,80.16
2018-11-25T18:26:55.989Z,79.87
2018-11-25T18:29:23.766Z,79.20
2018-11-25T18:31:51.511Z,78.77
2018-11-25T18:34:19.287Z,79.04
2018-11-25T18:36:47.155Z,78.86
2018-11-25T18:39:14.884Z,78.75
2018-11-25T18:41:42.662Z,78.29
2018-11-25T18:44:10.396Z,78.34
2018-11-25T18:46:46.303Z,78.21
2018-11-25T18:49:08.713Z,78.93
2018-11-25T18:51:36.466Z,78.58
2018-11-25T18:54:04.906Z,78.06
2018-11-25T18:56:32.646Z,78.17
2018-11-25T18:59:00.391Z,78.49
2018-11-25T19:01:49.088Z,78.71
2018-11-25T19:04:16.921Z,78.69
2018-11-25T19:06:44.732Z,78.65
2018-11-25T19:09:12.431Z,77.95
2018-11-25T19:11:40.186Z,78.29
2018-11-25T19:14:07.926Z,78.09
2018-11-25T19:16:35.670Z,78.17
2018-11-25T19:19:03.450Z,78.35
2018-11-25T19:21:31.174Z,78.36
2018-11-25T19:23:58.866Z,78.48
2018-11-25T19:26:26.567Z,79.28
2018-11-25T19:28:54.321Z,78.86
2018-11-25T19:31:22.071Z,79.36
2018-11-25T19:33:49.866Z,79.33
2018-11-25T19:36:17.572Z,79.35
2018-11-25T19:38:45.335Z,79.44
2018-11-25T19:41:13.087Z,79.31
2018-11-25T19:43:40.773Z,79.74
2018-11-25T19:46:08.526Z,79.24
2018-11-25T19:48:36.330Z,79.53
2018-11-25T19:51:04.178Z,79.42
2018-11-25T19:53:31.899Z,79.41
2018-11-25T19:55:59.606Z,79.62
2018-11-25T19:58:27.343Z,79.80
2018-11-25T20:00:55.090Z,79.68
2018-11-25T20:03:22.865Z,79.80
2018-11-25T20:05:50.614Z,80.10
2018-11-25T20:08:18.395Z,79.96
2018-11-25T20:10:46.172Z,79.78
2018-11-25T20:13:13.923Z,80.12
2018-11-25T20:15:41.642Z,80.23
2018-11-25T20:18:09.711Z,80.28
2018-11-25T20:20:37.457Z,80.38
2018-11-25T20:23:06.015Z,80.38
2018-11-25T20:25:34.008Z,80.73
2018-11-25T20:28:01.739Z,80.67
2018-11-25T20:30:31.243Z,80.79
2018-11-25T20:33:04.908Z,80.40
2018-11-25T20:35:32.679Z,80.34
2018-11-25T20:40:06.781Z,80.31
2018-11-25T20:42:34.538Z,80.25
2018-11-25T20:45:02.308Z,79.65
2018-11-25T20:47:30.127Z,79.25
2018-11-25T20:49:57.939Z,79.21
2018-11-25T20:52:31.071Z,79.38
2018-11-25T20:54:58.836Z,79.63
2018-11-25T20:57:26.563Z,79.34
2018-11-25T20:59:54.274Z,79.24
2018-11-25T21:02:28.953Z,79.36
2018-11-25T21:04:49.795Z,79.18
2018-11-25T21:07:17.504Z,79.19
2018-11-25T21:09:45.270Z,79.05
2018-11-25T21:12:13.035Z,78.94
2018-11-25T21:14:40.883Z,79.14
2018-11-25T21:17:08.647Z,78.93
2018-11-25T21:19:36.454Z,78.98
2018-11-25T21:22:04.460Z,79.04
2018-11-25T21:24:32.407Z,79.32
2018-11-25T21:27:00.148Z,79.27
2018-11-25T21:29:27.830Z,79.51
2018-11-25T21:31:56.643Z,79.54
2018-11-25T21:34:24.438Z,79.54
2018-11-25T21:36:52.220Z,79.64
2018-11-25T21:39:20.076Z,80.00
2018-11-25T21:41:47.796Z,79.92
2018-11-25T21:44:15.510Z,80.00
2018-11-25T21:46:43.285Z,79.98
2018-11-25T21:49:11.091Z,79.77
2018-11-25T21:51:38.849Z,79.65
2018-11-25T21:54:06.635Z,79.57
2018-11-25T21:56:34.485Z,79.84
2018-11-25T21:59:02.213Z,79.25
2018-11-25T22:01:29.962Z,79.18
2018-11-25T22:03:57.670Z,79.43
2018-11-25T22:06:25.375Z,79.04
2018-11-25T22:08:53.142Z,79.50
2018-11-25T22:11:20.885Z,79.56
2018-11-25T22:13:48.581Z,79.14
2018-11-25T22:16:16.346Z,78.97
2018-11-25T22:18:44.091Z,78.89
2018-11-25T22:21:11.844Z,79.26
2018-11-25T22:23:39.564Z,78.72
2018-11-25T22:26:07.323Z,79.16
2018-11-25T22:28:35.026Z,79.00
2018-11-25T22:31:02.788Z,78.77
2018-11-25T22:33:30.543Z,79.34
2018-11-25T22:35:58.281Z,78.97
2018-11-25T22:38:25.988Z,79.03
2018-11-25T22:40:53.853Z,78.81
2018-11-25T22:43:21.608Z,78.45
2018-11-25T22:45:49.349Z,78.47
2018-11-25T22:48:17.117Z,78.44
2018-11-25T22:50:44.820Z,78.27
2018-11-25T22:53:12.593Z,78.87
2018-11-25T22:55:40.317Z,78.72
2018-11-25T22:58:08.147Z,78.07
2018-11-25T23:00:36.650Z,78.16
2018-11-25T23:03:04.483Z,78.04
2018-11-25T23:06:08.340Z,77.80
2018-11-25T23:08:36.085Z,78.04
2018-11-25T23:11:03.860Z,77.76
2018-11-25T23:13:31.587Z,78.18
2018-11-25T23:15:59.322Z,77.87
2018-11-25T23:18:27.109Z,77.70
2018-11-25T23:20:54.848Z,77.73
2018-11-25T23:23:22.636Z,77.55
2018-11-25T23:25:50.517Z,77.81
2018-11-25T23:28:18.245Z,77.43
2018-11-25T23:30:45.993Z,77.38
2018-11-25T23:33:13.768Z,77.21
2018-11-25T23:35:41.554Z,77.25
2018-11-25T23:38:09.345Z,77.08
2018-11-25T23:40:37.099Z,77.15
2018-11-25T23:43:05.102Z,76.98
2018-11-25T23:45:32.865Z,77.31
2018-11-25T23:48:00.672Z,76.87
2018-11-25T23:50:28.412Z,77.23
2018-11-25T23:52:56.177Z,77.18
2018-11-25T23:55:23.915Z,77.47
2018-11-25T23:57:51.732Z,77.37
